sensor_id;sensor_type;location;lat;lon;timestamp;P1;durP1;ratioP1;P2;durP2;ratioP2
77350;SDS011;66420;50.246;14.320;2024-03-02T00:01:37;92.03;;;33.70;;
77350;SDS011;66420;50.246;14.320;2024-03-02T00:04:23;84.00;;;31.85;;
77350;SDS011;66420;50.246;14.320;2024-03-02T00:07:08;78.50;;;29.33;;
77350;SDS011;66420;50.246;14.320;2024-03-02T00:09:53;82.20;;;28.65;;
77350;SDS011;66420;50.246;14.320;2024-03-02T00:12:39;85.78;;;31.13;;
77350;SDS011;66420;50.246;14.320;2024-03-02T00:18:16;78.47;;;28.45;;
77350;SDS011;66420;50.246;14.320;2024-03-02T00:21:06;77.38;;;29.42;;
77350;SDS011;66420;50.246;14.320;2024-03-02T00:23:54;72.82;;;27.63;;
77350;SDS011;66420;50.246;14.320;2024-03-02T00:26:38;77.05;;;27.80;;
77350;SDS011;66420;50.246;14.320;2024-03-02T00:29:23;70.10;;;28.70;;
77350;SDS011;66420;50.246;14.320;2024-03-02T00:32:11;75.20;;;28.33;;
77350;SDS011;66420;50.246;14.320;2024-03-02T00:34:58;69.70;;;27.40;;
77350;SDS011;66420;50.246;14.320;2024-03-02T00:37:43;69.55;;;27.20;;
77350;SDS011;66420;50.246;14.320;2024-03-02T00:40:28;68.75;;;27.38;;
77350;SDS011;66420;50.246;14.320;2024-03-02T00:43:30;73.05;;;27.77;;
77350;SDS011;66420;50.246;14.320;2024-03-02T00:49:22;64.20;;;26.27;;
77350;SDS011;66420;50.246;14.320;2024-03-02T00:52:07;64.03;;;26.83;;
77350;SDS011;66420;50.246;14.320;2024-03-02T00:54:52;73.50;;;27.25;;
77350;SDS011;66420;50.246;14.320;2024-03-02T00:57:41;72.63;;;27.55;;
77350;SDS011;66420;50.246;14.320;2024-03-02T01:00:26;65.70;;;26.98;;
77350;SDS011;66420;50.246;14.320;2024-03-02T01:03:11;65.38;;;26.45;;
77350;SDS011;66420;50.246;14.320;2024-03-02T01:05:56;67.18;;;25.83;;
77350;SDS011;66420;50.246;14.320;2024-03-02T01:08:41;63.15;;;26.25;;
77350;SDS011;66420;50.246;14.320;2024-03-02T01:11:26;65.43;;;25.98;;
77350;SDS011;66420;50.246;14.320;2024-03-02T01:14:11;59.63;;;23.85;;
77350;SDS011;66420;50.246;14.320;2024-03-02T01:16:56;63.22;;;27.23;;
77350;SDS011;66420;50.246;14.320;2024-03-02T01:19:41;60.75;;;25.08;;
77350;SDS011;66420;50.246;14.320;2024-03-02T01:22:26;64.57;;;25.55;;
77350;SDS011;66420;50.246;14.320;2024-03-02T01:25:10;70.18;;;27.75;;
77350;SDS011;66420;50.246;14.320;2024-03-02T01:27:55;67.35;;;28.85;;
77350;SDS011;66420;50.246;14.320;2024-03-02T01:30:40;68.30;;;27.63;;
77350;SDS011;66420;50.246;14.320;2024-03-02T01:33:26;74.05;;;27.27;;
77350;SDS011;66420;50.246;14.320;2024-03-02T01:36:11;65.32;;;27.95;;
77350;SDS011;66420;50.246;14.320;2024-03-02T01:38:56;61.10;;;25.98;;
77350;SDS011;66420;50.246;14.320;2024-03-02T01:41:40;75.75;;;28.45;;
77350;SDS011;66420;50.246;14.320;2024-03-02T01:44:25;70.47;;;26.92;;
77350;SDS011;66420;50.246;14.320;2024-03-02T01:47:10;75.28;;;28.02;;
77350;SDS011;66420;50.246;14.320;2024-03-02T01:49:54;66.43;;;27.10;;
77350;SDS011;66420;50.246;14.320;2024-03-02T01:52:39;72.82;;;27.50;;
77350;SDS011;66420;50.246;14.320;2024-03-02T01:55:24;68.15;;;27.30;;
77350;SDS011;66420;50.246;14.320;2024-03-02T01:58:09;64.20;;;26.42;;
77350;SDS011;66420;50.246;14.320;2024-03-02T02:00:54;65.88;;;25.88;;
77350;SDS011;66420;50.246;14.320;2024-03-02T02:03:39;72.90;;;29.42;;
77350;SDS011;66420;50.246;14.320;2024-03-02T02:06:24;64.53;;;26.60;;
77350;SDS011;66420;50.246;14.320;2024-03-02T02:09:10;68.28;;;26.40;;
77350;SDS011;66420;50.246;14.320;2024-03-02T02:11:54;67.15;;;27.33;;
77350;SDS011;66420;50.246;14.320;2024-03-02T02:14:39;65.13;;;26.92;;
77350;SDS011;66420;50.246;14.320;2024-03-02T02:17:32;60.20;;;24.30;;
77350;SDS011;66420;50.246;14.320;2024-03-02T02:20:16;63.70;;;25.85;;
77350;SDS011;66420;50.246;14.320;2024-03-02T02:23:04;61.03;;;25.77;;
77350;SDS011;66420;50.246;14.320;2024-03-02T02:25:55;67.18;;;26.33;;
77350;SDS011;66420;50.246;14.320;2024-03-02T02:28:39;65.30;;;25.58;;
77350;SDS011;66420;50.246;14.320;2024-03-02T02:31:37;65.13;;;27.00;;
77350;SDS011;66420;50.246;14.320;2024-03-02T02:37:10;56.28;;;23.05;;
77350;SDS011;66420;50.246;14.320;2024-03-02T02:39:55;63.80;;;25.58;;
77350;SDS011;66420;50.246;14.320;2024-03-02T02:42:41;60.92;;;26.33;;
77350;SDS011;66420;50.246;14.320;2024-03-02T02:45:25;62.78;;;25.52;;
77350;SDS011;66420;50.246;14.320;2024-03-02T02:48:11;76.75;;;29.23;;
77350;SDS011;66420;50.246;14.320;2024-03-02T02:50:55;71.20;;;27.23;;
77350;SDS011;66420;50.246;14.320;2024-03-02T02:53:40;69.15;;;27.27;;
77350;SDS011;66420;50.246;14.320;2024-03-02T02:56:25;73.65;;;28.20;;
77350;SDS011;66420;50.246;14.320;2024-03-02T02:59:10;71.70;;;28.63;;
77350;SDS011;66420;50.246;14.320;2024-03-02T03:01:54;74.68;;;28.48;;
77350;SDS011;66420;50.246;14.320;2024-03-02T03:04:40;77.57;;;27.95;;
77350;SDS011;66420;50.246;14.320;2024-03-02T03:07:25;68.47;;;28.30;;
77350;SDS011;66420;50.246;14.320;2024-03-02T03:10:10;69.55;;;27.35;;
77350;SDS011;66420;50.246;14.320;2024-03-02T03:12:55;73.65;;;29.50;;
77350;SDS011;66420;50.246;14.320;2024-03-02T03:15:40;68.38;;;27.83;;
77350;SDS011;66420;50.246;14.320;2024-03-02T03:18:24;69.97;;;27.23;;
77350;SDS011;66420;50.246;14.320;2024-03-02T03:21:09;78.85;;;29.30;;
77350;SDS011;66420;50.246;14.320;2024-03-02T03:23:54;84.65;;;30.92;;
77350;SDS011;66420;50.246;14.320;2024-03-02T03:26:40;71.97;;;28.92;;
77350;SDS011;66420;50.246;14.320;2024-03-02T03:29:24;71.57;;;28.50;;
77350;SDS011;66420;50.246;14.320;2024-03-02T03:32:08;80.95;;;30.55;;
77350;SDS011;66420;50.246;14.320;2024-03-02T03:34:53;80.22;;;31.20;;
77350;SDS011;66420;50.246;14.320;2024-03-02T03:37:38;78.75;;;31.05;;
77350;SDS011;66420;50.246;14.320;2024-03-02T03:40:23;75.68;;;30.27;;
77350;SDS011;66420;50.246;14.320;2024-03-02T03:43:07;71.40;;;28.08;;
77350;SDS011;66420;50.246;14.320;2024-03-02T03:45:52;73.15;;;28.10;;
77350;SDS011;66420;50.246;14.320;2024-03-02T03:48:37;81.05;;;30.15;;
77350;SDS011;66420;50.246;14.320;2024-03-02T03:51:22;74.97;;;30.00;;
77350;SDS011;66420;50.246;14.320;2024-03-02T03:54:07;71.57;;;29.48;;
77350;SDS011;66420;50.246;14.320;2024-03-02T03:56:52;72.72;;;27.73;;
77350;SDS011;66420;50.246;14.320;2024-03-02T03:59:37;71.22;;;29.20;;
77350;SDS011;66420;50.246;14.320;2024-03-02T04:02:21;62.97;;;26.30;;
77350;SDS011;66420;50.246;14.320;2024-03-02T04:05:06;66.88;;;27.40;;
77350;SDS011;66420;50.246;14.320;2024-03-02T04:07:52;71.68;;;28.02;;
77350;SDS011;66420;50.246;14.320;2024-03-02T04:10:37;65.50;;;26.65;;
77350;SDS011;66420;50.246;14.320;2024-03-02T04:13:22;66.38;;;26.33;;
77350;SDS011;66420;50.246;14.320;2024-03-02T04:16:07;70.93;;;27.23;;
77350;SDS011;66420;50.246;14.320;2024-03-02T04:18:51;71.30;;;28.13;;
77350;SDS011;66420;50.246;14.320;2024-03-02T04:21:36;70.95;;;27.05;;
77350;SDS011;66420;50.246;14.320;2024-03-02T04:24:21;65.75;;;26.85;;
77350;SDS011;66420;50.246;14.320;2024-03-02T04:27:06;68.95;;;27.80;;
77350;SDS011;66420;50.246;14.320;2024-03-02T04:29:51;75.28;;;29.92;;
77350;SDS011;66420;50.246;14.320;2024-03-02T04:32:36;81.72;;;32.97;;
77350;SDS011;66420;50.246;14.320;2024-03-02T04:35:20;86.65;;;32.13;;
77350;SDS011;66420;50.246;14.320;2024-03-02T04:38:05;88.05;;;33.45;;
77350;SDS011;66420;50.246;14.320;2024-03-02T04:40:49;75.32;;;29.95;;
77350;SDS011;66420;50.246;14.320;2024-03-02T04:43:34;75.65;;;30.48;;
77350;SDS011;66420;50.246;14.320;2024-03-02T04:46:19;72.30;;;30.63;;
77350;SDS011;66420;50.246;14.320;2024-03-02T04:49:03;76.75;;;30.15;;
77350;SDS011;66420;50.246;14.320;2024-03-02T04:51:48;72.57;;;29.00;;
77350;SDS011;66420;50.246;14.320;2024-03-02T04:54:33;68.70;;;27.35;;
77350;SDS011;66420;50.246;14.320;2024-03-02T04:57:38;67.05;;;28.00;;
77350;SDS011;66420;50.246;14.320;2024-03-02T05:00:23;73.65;;;28.83;;
77350;SDS011;66420;50.246;14.320;2024-03-02T05:03:07;80.55;;;30.17;;
77350;SDS011;66420;50.246;14.320;2024-03-02T05:05:52;72.40;;;29.30;;
77350;SDS011;66420;50.246;14.320;2024-03-02T05:08:37;72.72;;;27.77;;
77350;SDS011;66420;50.246;14.320;2024-03-02T05:11:22;69.70;;;29.77;;
77350;SDS011;66420;50.246;14.320;2024-03-02T05:14:22;64.47;;;26.75;;
77350;SDS011;66420;50.246;14.320;2024-03-02T05:17:06;71.43;;;30.38;;
77350;SDS011;66420;50.246;14.320;2024-03-02T05:19:51;68.97;;;28.00;;
77350;SDS011;66420;50.246;14.320;2024-03-02T05:22:36;65.30;;;26.48;;
77350;SDS011;66420;50.246;14.320;2024-03-02T05:25:21;69.20;;;28.42;;
77350;SDS011;66420;50.246;14.320;2024-03-02T05:28:06;64.78;;;26.55;;
77350;SDS011;66420;50.246;14.320;2024-03-02T05:30:52;67.15;;;27.10;;
77350;SDS011;66420;50.246;14.320;2024-03-02T05:33:39;61.15;;;25.80;;
77350;SDS011;66420;50.246;14.320;2024-03-02T05:36:24;69.32;;;27.55;;
77350;SDS011;66420;50.246;14.320;2024-03-02T05:39:09;62.00;;;27.27;;
77350;SDS011;66420;50.246;14.320;2024-03-02T05:41:54;69.20;;;28.23;;
77350;SDS011;66420;50.246;14.320;2024-03-02T05:44:40;69.35;;;26.63;;
77350;SDS011;66420;50.246;14.320;2024-03-02T05:47:25;77.82;;;29.52;;
77350;SDS011;66420;50.246;14.320;2024-03-02T05:50:11;71.25;;;27.92;;
77350;SDS011;66420;50.246;14.320;2024-03-02T05:52:56;67.43;;;27.58;;
77350;SDS011;66420;50.246;14.320;2024-03-02T05:55:40;75.25;;;28.50;;
77350;SDS011;66420;50.246;14.320;2024-03-02T05:58:25;73.30;;;29.63;;
77350;SDS011;66420;50.246;14.320;2024-03-02T06:01:21;74.30;;;30.13;;
77350;SDS011;66420;50.246;14.320;2024-03-02T06:04:12;83.70;;;30.83;;
77350;SDS011;66420;50.246;14.320;2024-03-02T06:06:58;75.15;;;28.33;;
77350;SDS011;66420;50.246;14.320;2024-03-02T06:09:43;82.88;;;27.90;;
77350;SDS011;66420;50.246;14.320;2024-03-02T06:12:30;84.18;;;30.13;;
77350;SDS011;66420;50.246;14.320;2024-03-02T06:15:15;79.32;;;27.92;;
77350;SDS011;66420;50.246;14.320;2024-03-02T06:17:59;77.18;;;26.70;;
77350;SDS011;66420;50.246;14.320;2024-03-02T06:20:44;72.03;;;26.45;;
77350;SDS011;66420;50.246;14.320;2024-03-02T06:23:29;82.82;;;28.77;;
77350;SDS011;66420;50.246;14.320;2024-03-02T06:26:13;85.78;;;28.88;;
77350;SDS011;66420;50.246;14.320;2024-03-02T06:28:58;77.70;;;26.17;;
77350;SDS011;66420;50.246;14.320;2024-03-02T06:31:42;80.45;;;27.67;;
77350;SDS011;66420;50.246;14.320;2024-03-02T06:34:27;78.93;;;27.27;;
77350;SDS011;66420;50.246;14.320;2024-03-02T06:37:12;75.70;;;26.02;;
77350;SDS011;66420;50.246;14.320;2024-03-02T06:39:57;78.43;;;28.00;;
77350;SDS011;66420;50.246;14.320;2024-03-02T06:42:41;79.60;;;25.42;;
77350;SDS011;66420;50.246;14.320;2024-03-02T06:45:26;77.60;;;25.95;;
77350;SDS011;66420;50.246;14.320;2024-03-02T06:48:12;81.68;;;26.42;;
77350;SDS011;66420;50.246;14.320;2024-03-02T06:50:56;84.93;;;26.08;;
77350;SDS011;66420;50.246;14.320;2024-03-02T06:53:42;81.22;;;26.50;;
77350;SDS011;66420;50.246;14.320;2024-03-02T06:56:27;74.82;;;24.73;;
77350;SDS011;66420;50.246;14.320;2024-03-02T06:59:11;79.95;;;27.75;;
77350;SDS011;66420;50.246;14.320;2024-03-02T07:01:56;80.15;;;25.83;;
77350;SDS011;66420;50.246;14.320;2024-03-02T07:04:41;78.47;;;24.48;;
77350;SDS011;66420;50.246;14.320;2024-03-02T07:07:25;74.50;;;24.85;;
77350;SDS011;66420;50.246;14.320;2024-03-02T07:10:10;74.78;;;25.15;;
77350;SDS011;66420;50.246;14.320;2024-03-02T07:12:55;68.80;;;24.70;;
77350;SDS011;66420;50.246;14.320;2024-03-02T07:15:39;70.68;;;24.83;;
77350;SDS011;66420;50.246;14.320;2024-03-02T07:18:43;63.15;;;22.98;;
77350;SDS011;66420;50.246;14.320;2024-03-02T07:21:35;64.22;;;23.30;;
77350;SDS011;66420;50.246;14.320;2024-03-02T07:24:20;65.03;;;23.45;;
77350;SDS011;66420;50.246;14.320;2024-03-02T07:27:04;55.10;;;21.52;;
77350;SDS011;66420;50.246;14.320;2024-03-02T07:29:49;55.47;;;21.98;;
77350;SDS011;66420;50.246;14.320;2024-03-02T07:32:34;58.47;;;22.45;;
77350;SDS011;66420;50.246;14.320;2024-03-02T07:35:19;49.40;;;21.08;;
77350;SDS011;66420;50.246;14.320;2024-03-02T07:38:04;50.63;;;19.85;;
77350;SDS011;66420;50.246;14.320;2024-03-02T07:40:49;49.35;;;19.63;;
77350;SDS011;66420;50.246;14.320;2024-03-02T07:43:40;43.58;;;19.05;;
77350;SDS011;66420;50.246;14.320;2024-03-02T07:46:24;45.22;;;19.35;;
77350;SDS011;66420;50.246;14.320;2024-03-02T07:49:09;39.92;;;19.17;;
77350;SDS011;66420;50.246;14.320;2024-03-02T07:51:54;39.65;;;18.52;;
77350;SDS011;66420;50.246;14.320;2024-03-02T07:54:39;37.17;;;17.23;;
77350;SDS011;66420;50.246;14.320;2024-03-02T07:57:24;41.35;;;19.52;;
77350;SDS011;66420;50.246;14.320;2024-03-02T08:00:10;40.97;;;18.23;;
77350;SDS011;66420;50.246;14.320;2024-03-02T08:02:55;40.83;;;17.63;;
77350;SDS011;66420;50.246;14.320;2024-03-02T08:05:40;41.08;;;17.85;;
77350;SDS011;66420;50.246;14.320;2024-03-02T08:08:24;39.67;;;18.75;;
77350;SDS011;66420;50.246;14.320;2024-03-02T08:11:09;46.55;;;19.30;;
77350;SDS011;66420;50.246;14.320;2024-03-02T08:13:53;46.33;;;19.45;;
77350;SDS011;66420;50.246;14.320;2024-03-02T08:16:39;40.80;;;17.98;;
77350;SDS011;66420;50.246;14.320;2024-03-02T08:19:24;42.03;;;19.27;;
77350;SDS011;66420;50.246;14.320;2024-03-02T08:22:09;35.70;;;17.17;;
77350;SDS011;66420;50.246;14.320;2024-03-02T08:24:54;36.83;;;17.13;;
77350;SDS011;66420;50.246;14.320;2024-03-02T08:27:39;38.75;;;17.40;;
77350;SDS011;66420;50.246;14.320;2024-03-02T08:30:24;39.17;;;17.15;;
77350;SDS011;66420;50.246;14.320;2024-03-02T08:33:09;36.85;;;16.60;;
77350;SDS011;66420;50.246;14.320;2024-03-02T08:35:53;41.80;;;19.17;;
77350;SDS011;66420;50.246;14.320;2024-03-02T08:38:38;40.92;;;18.08;;
77350;SDS011;66420;50.246;14.320;2024-03-02T08:41:23;41.55;;;18.27;;
77350;SDS011;66420;50.246;14.320;2024-03-02T08:44:08;41.58;;;18.25;;
77350;SDS011;66420;50.246;14.320;2024-03-02T08:46:53;40.25;;;17.20;;
77350;SDS011;66420;50.246;14.320;2024-03-02T08:49:37;39.15;;;16.95;;
77350;SDS011;66420;50.246;14.320;2024-03-02T08:52:22;34.33;;;16.25;;
77350;SDS011;66420;50.246;14.320;2024-03-02T08:55:07;34.17;;;15.32;;
77350;SDS011;66420;50.246;14.320;2024-03-02T08:57:52;36.53;;;16.70;;
77350;SDS011;66420;50.246;14.320;2024-03-02T09:00:36;31.30;;;16.23;;
77350;SDS011;66420;50.246;14.320;2024-03-02T09:03:21;30.65;;;14.65;;
77350;SDS011;66420;50.246;14.320;2024-03-02T09:06:06;31.25;;;15.85;;
77350;SDS011;66420;50.246;14.320;2024-03-02T09:08:51;31.05;;;15.52;;
77350;SDS011;66420;50.246;14.320;2024-03-02T09:11:36;35.17;;;16.48;;
77350;SDS011;66420;50.246;14.320;2024-03-02T09:14:21;34.67;;;15.77;;
77350;SDS011;66420;50.246;14.320;2024-03-02T09:17:06;29.27;;;15.00;;
77350;SDS011;66420;50.246;14.320;2024-03-02T09:19:52;36.30;;;15.65;;
77350;SDS011;66420;50.246;14.320;2024-03-02T09:22:36;29.98;;;14.30;;
77350;SDS011;66420;50.246;14.320;2024-03-02T09:25:21;33.55;;;14.98;;
77350;SDS011;66420;50.246;14.320;2024-03-02T09:28:07;31.05;;;14.75;;
77350;SDS011;66420;50.246;14.320;2024-03-02T09:30:52;32.20;;;15.38;;
77350;SDS011;66420;50.246;14.320;2024-03-02T09:33:36;34.13;;;15.55;;
77350;SDS011;66420;50.246;14.320;2024-03-02T09:36:23;32.83;;;14.82;;
77350;SDS011;66420;50.246;14.320;2024-03-02T09:39:08;29.23;;;14.07;;
77350;SDS011;66420;50.246;14.320;2024-03-02T09:41:57;30.15;;;14.48;;
77350;SDS011;66420;50.246;14.320;2024-03-02T09:44:43;29.80;;;14.70;;
77350;SDS011;66420;50.246;14.320;2024-03-02T09:47:28;31.90;;;14.38;;
77350;SDS011;66420;50.246;14.320;2024-03-02T09:50:12;28.00;;;14.30;;
77350;SDS011;66420;50.246;14.320;2024-03-02T09:52:58;31.90;;;14.48;;
77350;SDS011;66420;50.246;14.320;2024-03-02T09:55:46;35.47;;;14.80;;
77350;SDS011;66420;50.246;14.320;2024-03-02T09:58:31;34.50;;;14.30;;
77350;SDS011;66420;50.246;14.320;2024-03-02T10:01:16;31.23;;;14.38;;
77350;SDS011;66420;50.246;14.320;2024-03-02T10:04:01;30.38;;;13.60;;
77350;SDS011;66420;50.246;14.320;2024-03-02T10:06:49;30.27;;;14.80;;
77350;SDS011;66420;50.246;14.320;2024-03-02T10:09:34;31.05;;;14.27;;
77350;SDS011;66420;50.246;14.320;2024-03-02T10:12:19;25.38;;;13.02;;
77350;SDS011;66420;50.246;14.320;2024-03-02T10:15:04;29.33;;;13.85;;
77350;SDS011;66420;50.246;14.320;2024-03-02T10:17:49;30.15;;;13.63;;
77350;SDS011;66420;50.246;14.320;2024-03-02T10:20:34;28.42;;;13.52;;
77350;SDS011;66420;50.246;14.320;2024-03-02T10:23:19;29.38;;;14.13;;
77350;SDS011;66420;50.246;14.320;2024-03-02T10:26:17;26.95;;;13.57;;
77350;SDS011;66420;50.246;14.320;2024-03-02T10:29:05;27.30;;;12.32;;
77350;SDS011;66420;50.246;14.320;2024-03-02T10:31:49;27.48;;;13.13;;
77350;SDS011;66420;50.246;14.320;2024-03-02T10:34:34;29.15;;;12.43;;
77350;SDS011;66420;50.246;14.320;2024-03-02T10:37:20;27.80;;;13.02;;
77350;SDS011;66420;50.246;14.320;2024-03-02T10:40:05;28.88;;;13.25;;
77350;SDS011;66420;50.246;14.320;2024-03-02T10:42:52;26.00;;;13.07;;
77350;SDS011;66420;50.246;14.320;2024-03-02T10:45:37;28.08;;;13.00;;
77350;SDS011;66420;50.246;14.320;2024-03-02T10:48:23;24.33;;;12.07;;
77350;SDS011;66420;50.246;14.320;2024-03-02T10:51:11;24.67;;;12.07;;
77350;SDS011;66420;50.246;14.320;2024-03-02T10:53:57;30.45;;;13.35;;
77350;SDS011;66420;50.246;14.320;2024-03-02T10:56:45;26.02;;;11.73;;
77350;SDS011;66420;50.246;14.320;2024-03-02T10:59:34;23.63;;;11.80;;
77350;SDS011;66420;50.246;14.320;2024-03-02T11:02:21;26.10;;;11.85;;
77350;SDS011;66420;50.246;14.320;2024-03-02T11:05:08;21.90;;;11.43;;
77350;SDS011;66420;50.246;14.320;2024-03-02T11:07:57;24.33;;;12.00;;
77350;SDS011;66420;50.246;14.320;2024-03-02T11:10:54;26.48;;;12.65;;
77350;SDS011;66420;50.246;14.320;2024-03-02T11:13:47;23.75;;;10.95;;
77350;SDS011;66420;50.246;14.320;2024-03-02T11:16:35;21.83;;;10.98;;
77350;SDS011;66420;50.246;14.320;2024-03-02T11:19:21;24.25;;;11.38;;
77350;SDS011;66420;50.246;14.320;2024-03-02T11:22:06;17.80;;;9.15;;
77350;SDS011;66420;50.246;14.320;2024-03-02T11:24:53;22.92;;;10.90;;
77350;SDS011;66420;50.246;14.320;2024-03-02T11:33:22;20.20;;;9.15;;
77350;SDS011;66420;50.246;14.320;2024-03-02T11:36:07;19.33;;;9.48;;
77350;SDS011;66420;50.246;14.320;2024-03-02T11:38:52;19.38;;;8.90;;
77350;SDS011;66420;50.246;14.320;2024-03-02T11:41:38;19.70;;;9.35;;
77350;SDS011;66420;50.246;14.320;2024-03-02T11:44:24;26.88;;;9.90;;
77350;SDS011;66420;50.246;14.320;2024-03-02T11:47:14;22.48;;;10.68;;
77350;SDS011;66420;50.246;14.320;2024-03-02T11:50:00;20.60;;;10.32;;
77350;SDS011;66420;50.246;14.320;2024-03-02T11:52:44;19.55;;;9.38;;
77350;SDS011;66420;50.246;14.320;2024-03-02T11:55:31;19.73;;;9.32;;
77350;SDS011;66420;50.246;14.320;2024-03-02T11:58:19;22.17;;;9.80;;
77350;SDS011;66420;50.246;14.320;2024-03-02T12:01:08;19.83;;;9.55;;
77350;SDS011;66420;50.246;14.320;2024-03-02T12:03:56;19.70;;;10.70;;
77350;SDS011;66420;50.246;14.320;2024-03-02T12:06:43;18.80;;;9.98;;
77350;SDS011;66420;50.246;14.320;2024-03-02T12:09:28;18.52;;;9.77;;
77350;SDS011;66420;50.246;14.320;2024-03-02T12:12:13;19.50;;;9.85;;
77350;SDS011;66420;50.246;14.320;2024-03-02T12:15:01;18.73;;;9.25;;
77350;SDS011;66420;50.246;14.320;2024-03-02T12:17:47;21.33;;;9.75;;
77350;SDS011;66420;50.246;14.320;2024-03-02T12:20:32;21.27;;;10.13;;
77350;SDS011;66420;50.246;14.320;2024-03-02T12:23:18;23.02;;;9.57;;
77350;SDS011;66420;50.246;14.320;2024-03-02T12:26:04;25.83;;;9.32;;
77350;SDS011;66420;50.246;14.320;2024-03-02T12:28:49;20.15;;;9.52;;
77350;SDS011;66420;50.246;14.320;2024-03-02T12:31:34;18.08;;;9.85;;
77350;SDS011;66420;50.246;14.320;2024-03-02T12:34:19;20.20;;;10.23;;
77350;SDS011;66420;50.246;14.320;2024-03-02T12:37:05;20.70;;;10.25;;
77350;SDS011;66420;50.246;14.320;2024-03-02T12:39:50;18.15;;;9.40;;
77350;SDS011;66420;50.246;14.320;2024-03-02T12:42:34;20.30;;;9.75;;
77350;SDS011;66420;50.246;14.320;2024-03-02T12:45:19;21.73;;;9.75;;
77350;SDS011;66420;50.246;14.320;2024-03-02T12:48:07;19.42;;;9.43;;
77350;SDS011;66420;50.246;14.320;2024-03-02T12:50:52;21.60;;;10.35;;
77350;SDS011;66420;50.246;14.320;2024-03-02T12:53:37;19.70;;;9.38;;
77350;SDS011;66420;50.246;14.320;2024-03-02T12:56:22;17.73;;;9.75;;
77350;SDS011;66420;50.246;14.320;2024-03-02T12:59:08;21.02;;;10.30;;
77350;SDS011;66420;50.246;14.320;2024-03-02T13:01:55;20.10;;;10.07;;
77350;SDS011;66420;50.246;14.320;2024-03-02T13:04:43;18.85;;;10.50;;
77350;SDS011;66420;50.246;14.320;2024-03-02T13:07:29;18.10;;;9.65;;
77350;SDS011;66420;50.246;14.320;2024-03-02T13:10:13;19.90;;;9.93;;
77350;SDS011;66420;50.246;14.320;2024-03-02T13:13:00;20.27;;;10.43;;
77350;SDS011;66420;50.246;14.320;2024-03-02T13:15:45;23.35;;;12.02;;
77350;SDS011;66420;50.246;14.320;2024-03-02T13:18:30;20.02;;;10.20;;
77350;SDS011;66420;50.246;14.320;2024-03-02T13:21:15;22.02;;;11.82;;
77350;SDS011;66420;50.246;14.320;2024-03-02T13:24:00;24.58;;;11.80;;
77350;SDS011;66420;50.246;14.320;2024-03-02T13:26:45;23.48;;;12.15;;
77350;SDS011;66420;50.246;14.320;2024-03-02T13:29:30;21.40;;;11.13;;
77350;SDS011;66420;50.246;14.320;2024-03-02T13:32:14;21.50;;;11.60;;
77350;SDS011;66420;50.246;14.320;2024-03-02T13:35:00;23.65;;;12.02;;
77350;SDS011;66420;50.246;14.320;2024-03-02T13:37:45;23.00;;;11.93;;
77350;SDS011;66420;50.246;14.320;2024-03-02T13:40:29;25.85;;;11.88;;
77350;SDS011;66420;50.246;14.320;2024-03-02T13:43:19;20.70;;;10.73;;
77350;SDS011;66420;50.246;14.320;2024-03-02T13:46:04;23.45;;;11.38;;
77350;SDS011;66420;50.246;14.320;2024-03-02T13:48:50;22.10;;;11.35;;
77350;SDS011;66420;50.246;14.320;2024-03-02T13:51:36;21.73;;;11.85;;
77350;SDS011;66420;50.246;14.320;2024-03-02T13:54:20;19.45;;;10.65;;
77350;SDS011;66420;50.246;14.320;2024-03-02T13:57:05;24.45;;;12.02;;
